sensor_id;sensor_type;location;lat;lon;timestamp;P1;durP1;ratioP1;P2;durP2;ratioP2
14268;SDS011;7218;51.480;7.006;2023-08-07T00:02:10;7.97;;;4.85;;
14268;SDS011;7218;51.480;7.006;2023-08-07T00:04:36;5.88;;;4.57;;
14268;SDS011;7218;51.480;7.006;2023-08-07T00:07:03;8.40;;;4.78;;
14268;SDS011;7218;51.480;7.006;2023-08-07T00:09:31;8.63;;;5.10;;
14268;SDS011;7218;51.480;7.006;2023-08-07T00:11:58;9.80;;;4.82;;
14268;SDS011;7218;51.480;7.006;2023-08-07T00:14:24;11.65;;;5.63;;
14268;SDS011;7218;51.480;7.006;2023-08-07T00:16:51;9.02;;;5.40;;
14268;SDS011;7218;51.480;7.006;2023-08-07T00:19:17;8.25;;;4.70;;
14268;SDS011;7218;51.480;7.006;2023-08-07T00:21:44;10.73;;;4.63;;
14268;SDS011;7218;51.480;7.006;2023-08-07T00:24:10;10.02;;;4.72;;
14268;SDS011;7218;51.480;7.006;2023-08-07T00:26:38;9.82;;;4.20;;
14268;SDS011;7218;51.480;7.006;2023-08-07T00:29:05;12.45;;;4.00;;
14268;SDS011;7218;51.480;7.006;2023-08-07T00:31:31;8.52;;;3.92;;
14268;SDS011;7218;51.480;7.006;2023-08-07T00:33:58;8.88;;;4.10;;
14268;SDS011;7218;51.480;7.006;2023-08-07T00:36:25;6.00;;;3.33;;
14268;SDS011;7218;51.480;7.006;2023-08-07T00:38:53;8.18;;;3.42;;
14268;SDS011;7218;51.480;7.006;2023-08-07T00:41:20;8.60;;;3.55;;
14268;SDS011;7218;51.480;7.006;2023-08-07T00:43:48;9.35;;;3.60;;
14268;SDS011;7218;51.480;7.006;2023-08-07T00:46:14;8.80;;;4.38;;
14268;SDS011;7218;51.480;7.006;2023-08-07T00:48:41;14.57;;;5.32;;
14268;SDS011;7218;51.480;7.006;2023-08-07T00:51:08;11.07;;;5.80;;
14268;SDS011;7218;51.480;7.006;2023-08-07T00:53:37;13.80;;;6.03;;
14268;SDS011;7218;51.480;7.006;2023-08-07T00:56:04;9.07;;;5.25;;
14268;SDS011;7218;51.480;7.006;2023-08-07T00:58:31;12.75;;;5.53;;
14268;SDS011;7218;51.480;7.006;2023-08-07T01:01:00;13.55;;;5.90;;
14268;SDS011;7218;51.480;7.006;2023-08-07T01:03:27;11.40;;;6.22;;
14268;SDS011;7218;51.480;7.006;2023-08-07T01:05:53;13.77;;;6.25;;
14268;SDS011;7218;51.480;7.006;2023-08-07T01:08:20;14.75;;;6.40;;
14268;SDS011;7218;51.480;7.006;2023-08-07T01:10:50;13.27;;;5.93;;
14268;SDS011;7218;51.480;7.006;2023-08-07T01:13:28;12.43;;;5.32;;
14268;SDS011;7218;51.480;7.006;2023-08-07T01:16:01;11.63;;;5.13;;
14268;SDS011;7218;51.480;7.006;2023-08-07T01:18:32;14.60;;;5.30;;
14268;SDS011;7218;51.480;7.006;2023-08-07T01:21:02;14.80;;;5.72;;
14268;SDS011;7218;51.480;7.006;2023-08-07T01:23:30;14.07;;;5.57;;
14268;SDS011;7218;51.480;7.006;2023-08-07T01:25:57;18.88;;;6.65;;
14268;SDS011;7218;51.480;7.006;2023-08-07T01:28:25;14.82;;;7.20;;
14268;SDS011;7218;51.480;7.006;2023-08-07T01:30:55;11.98;;;6.65;;
14268;SDS011;7218;51.480;7.006;2023-08-07T01:33:27;10.23;;;6.72;;
14268;SDS011;7218;51.480;7.006;2023-08-07T01:35:59;15.25;;;7.25;;
14268;SDS011;7218;51.480;7.006;2023-08-07T01:38:33;14.60;;;7.20;;
14268;SDS011;7218;51.480;7.006;2023-08-07T01:41:00;10.05;;;6.60;;
14268;SDS011;7218;51.480;7.006;2023-08-07T01:43:28;10.32;;;5.97;;
14268;SDS011;7218;51.480;7.006;2023-08-07T01:45:56;9.10;;;5.72;;
14268;SDS011;7218;51.480;7.006;2023-08-07T01:48:23;10.77;;;5.50;;
14268;SDS011;7218;51.480;7.006;2023-08-07T01:50:50;10.85;;;5.13;;
14268;SDS011;7218;51.480;7.006;2023-08-07T01:53:17;8.50;;;5.50;;
14268;SDS011;7218;51.480;7.006;2023-08-07T01:55:44;10.23;;;5.47;;
14268;SDS011;7218;51.480;7.006;2023-08-07T01:58:11;6.35;;;5.40;;
14268;SDS011;7218;51.480;7.006;2023-08-07T02:00:37;10.38;;;5.38;;
14268;SDS011;7218;51.480;7.006;2023-08-07T02:03:04;9.77;;;5.68;;
14268;SDS011;7218;51.480;7.006;2023-08-07T02:05:30;10.60;;;5.10;;
14268;SDS011;7218;51.480;7.006;2023-08-07T02:07:57;6.35;;;5.43;;
14268;SDS011;7218;51.480;7.006;2023-08-07T02:10:23;9.00;;;4.80;;
14268;SDS011;7218;51.480;7.006;2023-08-07T02:12:51;8.32;;;4.47;;
14268;SDS011;7218;51.480;7.006;2023-08-07T02:15:18;6.97;;;4.55;;
14268;SDS011;7218;51.480;7.006;2023-08-07T02:17:44;6.03;;;4.55;;
14268;SDS011;7218;51.480;7.006;2023-08-07T02:20:11;8.38;;;4.30;;
14268;SDS011;7218;51.480;7.006;2023-08-07T02:22:37;5.07;;;4.20;;
14268;SDS011;7218;51.480;7.006;2023-08-07T02:25:04;5.55;;;4.13;;
14268;SDS011;7218;51.480;7.006;2023-08-07T02:27:31;9.23;;;4.32;;
14268;SDS011;7218;51.480;7.006;2023-08-07T02:29:59;7.75;;;4.90;;
14268;SDS011;7218;51.480;7.006;2023-08-07T02:32:27;6.03;;;4.50;;
14268;SDS011;7218;51.480;7.006;2023-08-07T02:34:54;7.25;;;4.57;;
14268;SDS011;7218;51.480;7.006;2023-08-07T02:37:20;5.57;;;3.90;;
14268;SDS011;7218;51.480;7.006;2023-08-07T02:39:47;4.85;;;3.45;;
14268;SDS011;7218;51.480;7.006;2023-08-07T02:42:13;7.63;;;3.78;;
14268;SDS011;7218;51.480;7.006;2023-08-07T02:44:40;5.45;;;3.10;;
14268;SDS011;7218;51.480;7.006;2023-08-07T02:47:08;4.00;;;2.80;;
14268;SDS011;7218;51.480;7.006;2023-08-07T02:49:34;4.47;;;2.60;;
14268;SDS011;7218;51.480;7.006;2023-08-07T02:52:01;4.57;;;2.47;;
14268;SDS011;7218;51.480;7.006;2023-08-07T02:54:27;7.80;;;2.40;;
14268;SDS011;7218;51.480;7.006;2023-08-07T02:56:54;5.03;;;2.38;;
14268;SDS011;7218;51.480;7.006;2023-08-07T02:59:20;5.88;;;1.95;;
14268;SDS011;7218;51.480;7.006;2023-08-07T03:01:47;6.32;;;2.20;;
14268;SDS011;7218;51.480;7.006;2023-08-07T03:04:14;4.60;;;2.35;;
14268;SDS011;7218;51.480;7.006;2023-08-07T03:06:41;6.20;;;2.30;;
14268;SDS011;7218;51.480;7.006;2023-08-07T03:09:07;6.78;;;2.90;;
14268;SDS011;7218;51.480;7.006;2023-08-07T03:11:34;7.20;;;3.33;;
14268;SDS011;7218;51.480;7.006;2023-08-07T03:14:00;6.10;;;2.60;;
14268;SDS011;7218;51.480;7.006;2023-08-07T03:16:28;7.47;;;2.70;;
14268;SDS011;7218;51.480;7.006;2023-08-07T03:18:54;5.80;;;2.58;;
14268;SDS011;7218;51.480;7.006;2023-08-07T03:21:22;6.88;;;3.83;;
14268;SDS011;7218;51.480;7.006;2023-08-07T03:23:49;11.05;;;5.88;;
14268;SDS011;7218;51.480;7.006;2023-08-07T03:26:16;10.77;;;5.72;;
14268;SDS011;7218;51.480;7.006;2023-08-07T03:28:43;10.82;;;6.05;;
14268;SDS011;7218;51.480;7.006;2023-08-07T03:31:11;14.27;;;5.60;;
14268;SDS011;7218;51.480;7.006;2023-08-07T03:33:37;11.45;;;5.43;;
14268;SDS011;7218;51.480;7.006;2023-08-07T03:36:04;11.13;;;5.38;;
14268;SDS011;7218;51.480;7.006;2023-08-07T03:38:32;13.25;;;5.88;;
14268;SDS011;7218;51.480;7.006;2023-08-07T03:40:58;16.77;;;6.00;;
14268;SDS011;7218;51.480;7.006;2023-08-07T03:43:25;13.88;;;6.03;;
14268;SDS011;7218;51.480;7.006;2023-08-07T03:45:53;17.45;;;6.97;;
14268;SDS011;7218;51.480;7.006;2023-08-07T03:48:21;17.63;;;7.78;;
14268;SDS011;7218;51.480;7.006;2023-08-07T03:50:48;20.83;;;7.20;;
14268;SDS011;7218;51.480;7.006;2023-08-07T03:53:14;16.00;;;7.57;;
14268;SDS011;7218;51.480;7.006;2023-08-07T03:55:42;15.30;;;7.43;;
14268;SDS011;7218;51.480;7.006;2023-08-07T03:58:10;16.05;;;7.78;;
14268;SDS011;7218;51.480;7.006;2023-08-07T04:00:36;14.02;;;7.57;;
14268;SDS011;7218;51.480;7.006;2023-08-07T04:03:03;14.02;;;7.00;;
14268;SDS011;7218;51.480;7.006;2023-08-07T04:05:32;15.85;;;7.05;;
14268;SDS011;7218;51.480;7.006;2023-08-07T04:07:59;11.93;;;6.50;;
14268;SDS011;7218;51.480;7.006;2023-08-07T04:10:25;15.15;;;5.63;;
14268;SDS011;7218;51.480;7.006;2023-08-07T04:12:53;12.30;;;5.88;;
14268;SDS011;7218;51.480;7.006;2023-08-07T04:15:19;17.20;;;5.80;;
14268;SDS011;7218;51.480;7.006;2023-08-07T04:17:46;12.55;;;5.72;;
14268;SDS011;7218;51.480;7.006;2023-08-07T04:20:12;15.93;;;5.30;;
14268;SDS011;7218;51.480;7.006;2023-08-07T04:22:39;17.10;;;5.47;;
14268;SDS011;7218;51.480;7.006;2023-08-07T04:25:06;14.25;;;5.53;;
14268;SDS011;7218;51.480;7.006;2023-08-07T04:27:33;16.88;;;5.75;;
14268;SDS011;7218;51.480;7.006;2023-08-07T04:30:01;14.43;;;5.75;;
14268;SDS011;7218;51.480;7.006;2023-08-07T04:32:27;12.07;;;5.32;;
14268;SDS011;7218;51.480;7.006;2023-08-07T04:34:53;15.70;;;6.40;;
14268;SDS011;7218;51.480;7.006;2023-08-07T04:37:20;14.73;;;5.82;;
14268;SDS011;7218;51.480;7.006;2023-08-07T04:39:47;14.52;;;5.80;;
14268;SDS011;7218;51.480;7.006;2023-08-07T04:42:14;15.57;;;6.20;;
14268;SDS011;7218;51.480;7.006;2023-08-07T04:44:40;15.43;;;6.88;;
14268;SDS011;7218;51.480;7.006;2023-08-07T04:47:08;15.95;;;6.80;;
14268;SDS011;7218;51.480;7.006;2023-08-07T04:49:34;15.65;;;6.50;;
14268;SDS011;7218;51.480;7.006;2023-08-07T04:52:01;11.95;;;5.43;;
14268;SDS011;7218;51.480;7.006;2023-08-07T04:54:27;12.98;;;5.10;;
14268;SDS011;7218;51.480;7.006;2023-08-07T04:56:54;11.98;;;4.38;;
14268;SDS011;7218;51.480;7.006;2023-08-07T04:59:20;14.02;;;4.25;;
14268;SDS011;7218;51.480;7.006;2023-08-07T05:01:47;10.45;;;3.75;;
14268;SDS011;7218;51.480;7.006;2023-08-07T05:04:15;13.70;;;4.13;;
14268;SDS011;7218;51.480;7.006;2023-08-07T05:06:41;14.48;;;4.10;;
14268;SDS011;7218;51.480;7.006;2023-08-07T05:09:08;12.95;;;3.60;;
14268;SDS011;7218;51.480;7.006;2023-08-07T05:11:34;12.20;;;4.50;;
14268;SDS011;7218;51.480;7.006;2023-08-07T05:14:01;14.80;;;4.50;;
14268;SDS011;7218;51.480;7.006;2023-08-07T05:16:28;10.77;;;3.75;;
14268;SDS011;7218;51.480;7.006;2023-08-07T05:18:55;12.95;;;4.20;;
14268;SDS011;7218;51.480;7.006;2023-08-07T05:21:23;11.60;;;4.00;;
14268;SDS011;7218;51.480;7.006;2023-08-07T05:23:49;10.70;;;3.95;;
14268;SDS011;7218;51.480;7.006;2023-08-07T05:26:18;12.27;;;4.72;;
14268;SDS011;7218;51.480;7.006;2023-08-07T05:28:45;12.55;;;3.88;;
14268;SDS011;7218;51.480;7.006;2023-08-07T05:31:11;12.55;;;3.95;;
14268;SDS011;7218;51.480;7.006;2023-08-07T05:33:38;9.60;;;3.80;;
14268;SDS011;7218;51.480;7.006;2023-08-07T05:36:05;14.18;;;4.55;;
14268;SDS011;7218;51.480;7.006;2023-08-07T05:38:33;9.35;;;3.95;;
14268;SDS011;7218;51.480;7.006;2023-08-07T05:41:00;11.38;;;4.32;;
14268;SDS011;7218;51.480;7.006;2023-08-07T05:43:26;8.95;;;4.10;;
14268;SDS011;7218;51.480;7.006;2023-08-07T05:45:53;8.52;;;3.80;;
14268;SDS011;7218;51.480;7.006;2023-08-07T05:48:19;8.80;;;3.60;;
14268;SDS011;7218;51.480;7.006;2023-08-07T05:50:46;10.75;;;4.45;;
14268;SDS011;7218;51.480;7.006;2023-08-07T05:53:12;8.35;;;4.30;;
14268;SDS011;7218;51.480;7.006;2023-08-07T05:55:40;11.02;;;5.45;;
14268;SDS011;7218;51.480;7.006;2023-08-07T05:58:07;11.15;;;6.53;;
14268;SDS011;7218;51.480;7.006;2023-08-07T06:00:34;12.80;;;5.85;;
14268;SDS011;7218;51.480;7.006;2023-08-07T06:03:00;12.68;;;6.70;;
14268;SDS011;7218;51.480;7.006;2023-08-07T06:05:27;10.90;;;7.13;;
14268;SDS011;7218;51.480;7.006;2023-08-07T06:07:53;14.25;;;7.10;;
14268;SDS011;7218;51.480;7.006;2023-08-07T06:10:20;13.55;;;7.68;;
14268;SDS011;7218;51.480;7.006;2023-08-07T06:12:48;16.80;;;8.48;;
14268;SDS011;7218;51.480;7.006;2023-08-07T06:15:14;14.75;;;8.75;;
14268;SDS011;7218;51.480;7.006;2023-08-07T06:17:41;12.85;;;8.73;;
14268;SDS011;7218;51.480;7.006;2023-08-07T06:20:08;17.73;;;8.82;;
14268;SDS011;7218;51.480;7.006;2023-08-07T06:22:36;11.25;;;8.43;;
14268;SDS011;7218;51.480;7.006;2023-08-07T06:25:03;16.20;;;8.43;;
14268;SDS011;7218;51.480;7.006;2023-08-07T06:27:30;11.05;;;7.32;;
14268;SDS011;7218;51.480;7.006;2023-08-07T06:29:58;9.73;;;7.10;;
14268;SDS011;7218;51.480;7.006;2023-08-07T06:32:25;12.20;;;7.30;;
14268;SDS011;7218;51.480;7.006;2023-08-07T06:34:52;12.32;;;6.95;;
14268;SDS011;7218;51.480;7.006;2023-08-07T06:37:18;11.27;;;7.00;;
14268;SDS011;7218;51.480;7.006;2023-08-07T06:39:44;8.63;;;6.75;;
14268;SDS011;7218;51.480;7.006;2023-08-07T06:42:11;8.27;;;6.43;;
14268;SDS011;7218;51.480;7.006;2023-08-07T06:44:37;11.45;;;7.15;;
14268;SDS011;7218;51.480;7.006;2023-08-07T06:47:05;10.77;;;7.05;;
14268;SDS011;7218;51.480;7.006;2023-08-07T06:49:32;10.38;;;7.20;;
14268;SDS011;7218;51.480;7.006;2023-08-07T06:51:59;11.52;;;7.60;;
14268;SDS011;7218;51.480;7.006;2023-08-07T06:54:27;11.73;;;7.22;;
14268;SDS011;7218;51.480;7.006;2023-08-07T06:56:53;12.85;;;7.00;;
14268;SDS011;7218;51.480;7.006;2023-08-07T06:59:20;10.60;;;6.00;;
14268;SDS011;7218;51.480;7.006;2023-08-07T07:01:46;8.30;;;5.65;;
14268;SDS011;7218;51.480;7.006;2023-08-07T07:04:14;9.90;;;6.18;;
14268;SDS011;7218;51.480;7.006;2023-08-07T07:06:41;9.35;;;6.28;;
14268;SDS011;7218;51.480;7.006;2023-08-07T07:09:07;9.77;;;6.15;;
14268;SDS011;7218;51.480;7.006;2023-08-07T07:11:34;11.55;;;6.20;;
14268;SDS011;7218;51.480;7.006;2023-08-07T07:14:00;8.32;;;6.28;;
14268;SDS011;7218;51.480;7.006;2023-08-07T07:16:27;11.05;;;6.60;;
14268;SDS011;7218;51.480;7.006;2023-08-07T07:18:53;9.93;;;6.00;;
14268;SDS011;7218;51.480;7.006;2023-08-07T07:21:22;12.63;;;6.28;;
14268;SDS011;7218;51.480;7.006;2023-08-07T07:23:49;10.07;;;6.57;;
14268;SDS011;7218;51.480;7.006;2023-08-07T07:26:15;9.30;;;6.47;;
14268;SDS011;7218;51.480;7.006;2023-08-07T07:28:42;10.60;;;6.63;;
14268;SDS011;7218;51.480;7.006;2023-08-07T07:31:08;10.68;;;6.20;;
14268;SDS011;7218;51.480;7.006;2023-08-07T07:33:36;8.35;;;5.90;;
14268;SDS011;7218;51.480;7.006;2023-08-07T07:36:04;10.60;;;6.78;;
14268;SDS011;7218;51.480;7.006;2023-08-07T07:38:32;10.88;;;6.00;;
14268;SDS011;7218;51.480;7.006;2023-08-07T07:40:58;10.90;;;6.22;;
14268;SDS011;7218;51.480;7.006;2023-08-07T07:43:25;10.02;;;6.47;;
14268;SDS011;7218;51.480;7.006;2023-08-07T07:45:52;10.88;;;6.20;;
14268;SDS011;7218;51.480;7.006;2023-08-07T07:48:18;10.52;;;5.57;;
14268;SDS011;7218;51.480;7.006;2023-08-07T07:50:45;10.63;;;5.90;;
14268;SDS011;7218;51.480;7.006;2023-08-07T07:53:11;7.60;;;5.43;;
14268;SDS011;7218;51.480;7.006;2023-08-07T07:55:39;6.20;;;5.03;;
14268;SDS011;7218;51.480;7.006;2023-08-07T07:58:06;7.43;;;4.35;;
14268;SDS011;7218;51.480;7.006;2023-08-07T08:00:32;9.15;;;5.22;;
14268;SDS011;7218;51.480;7.006;2023-08-07T08:02:59;6.93;;;4.63;;
14268;SDS011;7218;51.480;7.006;2023-08-07T08:05:25;8.48;;;4.30;;
14268;SDS011;7218;51.480;7.006;2023-08-07T08:07:52;8.93;;;4.47;;
14268;SDS011;7218;51.480;7.006;2023-08-07T08:10:18;10.13;;;4.07;;
14268;SDS011;7218;51.480;7.006;2023-08-07T08:12:46;8.45;;;4.10;;
14268;SDS011;7218;51.480;7.006;2023-08-07T08:15:13;11.20;;;4.22;;
14268;SDS011;7218;51.480;7.006;2023-08-07T08:17:39;9.35;;;3.70;;
14268;SDS011;7218;51.480;7.006;2023-08-07T08:20:06;8.90;;;3.25;;
14268;SDS011;7218;51.480;7.006;2023-08-07T08:22:33;10.13;;;3.55;;
14268;SDS011;7218;51.480;7.006;2023-08-07T08:25:00;6.70;;;3.08;;
14268;SDS011;7218;51.480;7.006;2023-08-07T08:27:26;8.43;;;3.58;;
14268;SDS011;7218;51.480;7.006;2023-08-07T08:29:54;8.27;;;3.60;;
14268;SDS011;7218;51.480;7.006;2023-08-07T08:32:21;6.25;;;3.13;;
14268;SDS011;7218;51.480;7.006;2023-08-07T08:34:47;12.35;;;4.13;;
14268;SDS011;7218;51.480;7.006;2023-08-07T08:37:15;9.88;;;3.60;;
14268;SDS011;7218;51.480;7.006;2023-08-07T08:39:41;9.25;;;3.95;;
14268;SDS011;7218;51.480;7.006;2023-08-07T08:42:08;8.98;;;3.70;;
14268;SDS011;7218;51.480;7.006;2023-08-07T08:44:37;12.30;;;4.20;;
14268;SDS011;7218;51.480;7.006;2023-08-07T08:47:07;8.82;;;3.90;;
14268;SDS011;7218;51.480;7.006;2023-08-07T08:49:35;8.93;;;4.00;;
14268;SDS011;7218;51.480;7.006;2023-08-07T08:52:08;10.93;;;3.80;;
14268;SDS011;7218;51.480;7.006;2023-08-07T08:54:36;10.70;;;3.90;;
14268;SDS011;7218;51.480;7.006;2023-08-07T08:57:03;10.07;;;4.10;;
14268;SDS011;7218;51.480;7.006;2023-08-07T08:59:30;9.77;;;3.80;;
14268;SDS011;7218;51.480;7.006;2023-08-07T09:01:58;10.50;;;3.95;;
14268;SDS011;7218;51.480;7.006;2023-08-07T09:04:25;10.45;;;4.00;;
14268;SDS011;7218;51.480;7.006;2023-08-07T09:06:52;9.73;;;4.28;;
14268;SDS011;7218;51.480;7.006;2023-08-07T09:09:20;8.82;;;4.03;;
14268;SDS011;7218;51.480;7.006;2023-08-07T09:11:47;11.88;;;3.88;;
14268;SDS011;7218;51.480;7.006;2023-08-07T09:14:15;10.45;;;3.90;;
14268;SDS011;7218;51.480;7.006;2023-08-07T09:19:11;10.57;;;3.92;;
14268;SDS011;7218;51.480;7.006;2023-08-07T09:21:39;8.60;;;4.20;;
14268;SDS011;7218;51.480;7.006;2023-08-07T09:24:06;10.30;;;3.90;;
14268;SDS011;7218;51.480;7.006;2023-08-07T09:26:33;13.75;;;3.60;;
14268;SDS011;7218;51.480;7.006;2023-08-07T09:28:59;13.93;;;4.00;;
14268;SDS011;7218;51.480;7.006;2023-08-07T09:31:27;12.15;;;3.70;;
14268;SDS011;7218;51.480;7.006;2023-08-07T09:34:00;10.40;;;4.20;;
14268;SDS011;7218;51.480;7.006;2023-08-07T09:36:29;11.82;;;3.90;;
14268;SDS011;7218;51.480;7.006;2023-08-07T09:38:58;10.77;;;3.80;;
14268;SDS011;7218;51.480;7.006;2023-08-07T09:41:26;12.15;;;4.53;;
14268;SDS011;7218;51.480;7.006;2023-08-07T09:43:54;12.52;;;4.03;;
14268;SDS011;7218;51.480;7.006;2023-08-07T09:46:21;8.55;;;3.58;;
14268;SDS011;7218;51.480;7.006;2023-08-07T09:48:47;10.38;;;3.70;;
14268;SDS011;7218;51.480;7.006;2023-08-07T09:51:14;6.13;;;3.13;;
14268;SDS011;7218;51.480;7.006;2023-08-07T09:53:40;8.60;;;4.03;;
14268;SDS011;7218;51.480;7.006;2023-08-07T09:56:08;8.00;;;3.92;;
14268;SDS011;7218;51.480;7.006;2023-08-07T09:58:35;9.57;;;4.00;;
14268;SDS011;7218;51.480;7.006;2023-08-07T10:01:02;8.77;;;4.22;;
14268;SDS011;7218;51.480;7.006;2023-08-07T10:03:30;11.65;;;3.95;;
14268;SDS011;7218;51.480;7.006;2023-08-07T10:05:57;9.95;;;3.78;;
14268;SDS011;7218;51.480;7.006;2023-08-07T10:08:25;11.95;;;4.20;;
14268;SDS011;7218;51.480;7.006;2023-08-07T10:10:52;12.25;;;5.15;;
14268;SDS011;7218;51.480;7.006;2023-08-07T10:13:20;13.88;;;4.75;;
14268;SDS011;7218;51.480;7.006;2023-08-07T10:15:48;10.93;;;4.07;;
14268;SDS011;7218;51.480;7.006;2023-08-07T10:18:16;12.38;;;4.88;;
14268;SDS011;7218;51.480;7.006;2023-08-07T10:20:42;11.98;;;4.47;;
14268;SDS011;7218;51.480;7.006;2023-08-07T10:23:10;10.70;;;4.20;;
14268;SDS011;7218;51.480;7.006;2023-08-07T10:25:38;9.40;;;4.05;;
14268;SDS011;7218;51.480;7.006;2023-08-07T10:28:08;12.18;;;3.97;;
14268;SDS011;7218;51.480;7.006;2023-08-07T10:30:39;12.05;;;3.95;;
14268;SDS011;7218;51.480;7.006;2023-08-07T10:33:07;9.93;;;3.33;;
14268;SDS011;7218;51.480;7.006;2023-08-07T10:35:35;8.68;;;2.85;;
14268;SDS011;7218;51.480;7.006;2023-08-07T10:38:05;9.20;;;3.45;;
14268;SDS011;7218;51.480;7.006;2023-08-07T10:40:33;9.70;;;3.78;;
14268;SDS011;7218;51.480;7.006;2023-08-07T10:43:12;13.18;;;4.22;;
14268;SDS011;7218;51.480;7.006;2023-08-07T10:45:44;11.00;;;3.20;;
14268;SDS011;7218;51.480;7.006;2023-08-07T10:48:11;9.35;;;2.92;;
14268;SDS011;7218;51.480;7.006;2023-08-07T10:50:48;7.28;;;2.53;;
14268;SDS011;7218;51.480;7.006;2023-08-07T10:53:28;8.13;;;2.85;;
14268;SDS011;7218;51.480;7.006;2023-08-07T10:55:55;10.07;;;2.78;;
14268;SDS011;7218;51.480;7.006;2023-08-07T10:58:23;9.75;;;3.15;;
14268;SDS011;7218;51.480;7.006;2023-08-07T11:00:51;8.27;;;2.90;;
14268;SDS011;7218;51.480;7.006;2023-08-07T11:03:26;8.77;;;3.03;;
14268;SDS011;7218;51.480;7.006;2023-08-07T11:05:53;12.13;;;3.10;;
14268;SDS011;7218;51.480;7.006;2023-08-07T11:08:21;9.05;;;2.92;;
14268;SDS011;7218;51.480;7.006;2023-08-07T11:10:48;7.40;;;2.80;;
14268;SDS011;7218;51.480;7.006;2023-08-07T11:13:16;8.93;;;2.85;;
14268;SDS011;7218;51.480;7.006;2023-08-07T11:15:43;11.50;;;2.75;;
14268;SDS011;7218;51.480;7.006;2023-08-07T11:18:13;7.45;;;2.20;;
14268;SDS011;7218;51.480;7.006;2023-08-07T11:20:41;7.55;;;2.50;;
14268;SDS011;7218;51.480;7.006;2023-08-07T11:23:08;11.15;;;2.97;;
14268;SDS011;7218;51.480;7.006;2023-08-07T11:25:36;6.03;;;2.55;;
14268;SDS011;7218;51.480;7.006;2023-08-07T11:28:03;9.52;;;2.80;;
14268;SDS011;7218;51.480;7.006;2023-08-07T11:30:29;8.10;;;2.42;;
14268;SDS011;7218;51.480;7.006;2023-08-07T11:32:56;6.15;;;2.38;;
14268;SDS011;7218;51.480;7.006;2023-08-07T11:35:24;9.00;;;2.67;;
14268;SDS011;7218;51.480;7.006;2023-08-07T11:37:51;6.15;;;2.25;;
14268;SDS011;7218;51.480;7.006;2023-08-07T11:40:19;6.43;;;2.35;;
14268;SDS011;7218;51.480;7.006;2023-08-07T11:42:46;10.23;;;2.30;;
14268;SDS011;7218;51.480;7.006;2023-08-07T11:45:12;6.20;;;2.25;;
14268;SDS011;7218;51.480;7.006;2023-08-07T11:47:39;6.68;;;2.10;;
14268;SDS011;7218;51.480;7.006;2023-08-07T11:50:06;10.23;;;2.50;;
14268;SDS011;7218;51.480;7.006;2023-08-07T11:52:35;10.90;;;2.50;;
14268;SDS011;7218;51.480;7.006;2023-08-07T11:55:02;6.55;;;2.33;;
14268;SDS011;7218;51.480;7.006;2023-08-07T11:57:29;10.10;;;2.20;;
14268;SDS011;7218;51.480;7.006;2023-08-07T11:59:55;9.40;;;2.70;;
14268;SDS011;7218;51.480;7.006;2023-08-07T12:02:25;6.18;;;2.42;;
14268;SDS011;7218;51.480;7.006;2023-08-07T12:04:52;6.47;;;2.15;;
14268;SDS011;7218;51.480;7.006;2023-08-07T12:07:24;8.73;;;3.47;;
14268;SDS011;7218;51.480;7.006;2023-08-07T12:09:53;5.63;;;2.95;;
14268;SDS011;7218;51.480;7.006;2023-08-07T12:12:20;4.82;;;2.05;;
14268;SDS011;7218;51.480;7.006;2023-08-07T12:14:51;6.00;;;1.80;;
14268;SDS011;7218;51.480;7.006;2023-08-07T12:17:18;4.85;;;2.05;;
14268;SDS011;7218;51.480;7.006;2023-08-07T12:19:45;7.03;;;2.00;;
14268;SDS011;7218;51.480;7.006;2023-08-07T12:22:12;8.90;;;2.22;;
14268;SDS011;7218;51.480;7.006;2023-08-07T12:24:38;4.97;;;1.90;;
14268;SDS011;7218;51.480;7.006;2023-08-07T12:27:08;6.93;;;2.30;;
14268;SDS011;7218;51.480;7.006;2023-08-07T12:29:35;7.10;;;2.00;;
14268;SDS011;7218;51.480;7.006;2023-08-07T12:32:01;6.97;;;2.50;;
14268;SDS011;7218;51.480;7.006;2023-08-07T12:34:28;6.60;;;2.53;;
14268;SDS011;7218;51.480;7.006;2023-08-07T12:36:54;7.30;;;2.55;;
14268;SDS011;7218;51.480;7.006;2023-08-07T12:39:21;6.35;;;2.22;;
14268;SDS011;7218;51.480;7.006;2023-08-07T12:41:47;4.05;;;2.10;;
14268;SDS011;7218;51.480;7.006;2023-08-07T12:44:16;6.05;;;2.58;;
14268;SDS011;7218;51.480;7.006;2023-08-07T12:46:42;7.38;;;2.00;;
14268;SDS011;7218;51.480;7.006;2023-08-07T12:49:09;6.00;;;2.00;;
14268;SDS011;7218;51.480;7.006;2023-08-07T12:51:35;5.30;;;2.33;;
14268;SDS011;7218;51.480;7.006;2023-08-07T12:54:02;7.93;;;2.30;;
14268;SDS011;7218;51.480;7.006;2023-08-07T12:56:29;6.05;;;2.08;;
14268;SDS011;7218;51.480;7.006;2023-08-07T12:58:55;5.53;;;2.05;;
14268;SDS011;7218;51.480;7.006;2023-08-07T13:01:23;8.00;;;2.10;;
14268;SDS011;7218;51.480;7.006;2023-08-07T13:03:51;5.97;;;2.17;;
14268;SDS011;7218;51.480;7.006;2023-08-07T13:06:18;8.02;;;2.55;;
14268;SDS011;7218;51.480;7.006;2023-08-07T13:08:44;6.63;;;2.00;;
14268;SDS011;7218;51.480;7.006;2023-08-07T13:11:12;6.07;;;2.33;;
14268;SDS011;7218;51.480;7.006;2023-08-07T13:13:38;7.22;;;2.10;;
14268;SDS011;7218;51.480;7.006;2023-08-07T13:16:05;9.75;;;2.22;;
14268;SDS011;7218;51.480;7.006;2023-08-07T13:18:33;3.10;;;1.77;;
14268;SDS011;7218;51.480;7.006;2023-08-07T13:21:00;7.45;;;2.65;;
14268;SDS011;7218;51.480;7.006;2023-08-07T13:23:26;4.38;;;2.03;;
14268;SDS011;7218;51.480;7.006;2023-08-07T13:25:52;9.15;;;2.40;;
14268;SDS011;7218;51.480;7.006;2023-08-07T13:28:19;6.25;;;2.03;;
14268;SDS011;7218;51.480;7.006;2023-08-07T13:30:45;5.28;;;2.42;;
14268;SDS011;7218;51.480;7.006;2023-08-07T13:33:13;5.53;;;1.88;;
14268;SDS011;7218;51.480;7.006;2023-08-07T13:35:41;3.92;;;1.92;;
14268;SDS011;7218;51.480;7.006;2023-08-07T13:38:07;5.53;;;1.90;;
14268;SDS011;7218;51.480;7.006;2023-08-07T13:40:35;6.95;;;1.92;;
14268;SDS011;7218;51.480;7.006;2023-08-07T13:43:02;4.13;;;1.80;;
14268;SDS011;7218;51.480;7.006;2023-08-07T13:45:34;5.47;;;1.50;;
14268;SDS011;7218;51.480;7.006;2023-08-07T13:48:00;7.85;;;1.92;;
14268;SDS011;7218;51.480;7.006;2023-08-07T13:50:27;5.72;;;2.10;;
14268;SDS011;7218;51.480;7.006;2023-08-07T13:52:55;4.43;;;2.00;;
14268;SDS011;7218;51.480;7.006;2023-08-07T13:55:21;4.55;;;1.70;;
14268;SDS011;7218;51.480;7.006;2023-08-07T13:57:48;3.42;;;1.67;;
14268;SDS011;7218;51.480;7.006;2023-08-07T14:00:15;5.35;;;2.05;;
14268;SDS011;7218;51.480;7.006;2023-08-07T14:02:42;6.80;;;1.75;;
14268;SDS011;7218;51.480;7.006;2023-08-07T14:05:09;5.57;;;1.92;;
14268;SDS011;7218;51.480;7.006;2023-08-07T14:07:35;6.90;;;1.90;;
14268;SDS011;7218;51.480;7.006;2023-08-07T14:10:03;4.03;;;1.60;;
14268;SDS011;7218;51.480;7.006;2023-08-07T14:12:30;6.05;;;2.17;;
14268;SDS011;7218;51.480;7.006;2023-08-07T14:14:57;4.90;;;1.85;;
14268;SDS011;7218;51.480;7.006;2023-08-07T14:17:23;6.40;;;1.90;;
14268;SDS011;7218;51.480;7.006;2023-08-07T14:19:50;6.03;;;1.80;;
14268;SDS011;7218;51.480;7.006;2023-08-07T14:22:17;4.38;;;1.85;;
14268;SDS011;7218;51.480;7.006;2023-08-07T14:24:43;7.28;;;1.80;;
14268;SDS011;7218;51.480;7.006;2023-08-07T14:27:11;3.35;;;1.70;;
14268;SDS011;7218;51.480;7.006;2023-08-07T14:29:37;6.13;;;2.10;;
14268;SDS011;7218;51.480;7.006;2023-08-07T14:32:04;4.95;;;1.80;;
14268;SDS011;7218;51.480;7.006;2023-08-07T14:34:31;4.43;;;1.92;;
14268;SDS011;7218;51.480;7.006;2023-08-07T14:36:57;5.30;;;2.25;;
14268;SDS011;7218;51.480;7.006;2023-08-07T14:39:24;5.72;;;2.20;;
14268;SDS011;7218;51.480;7.006;2023-08-07T14:41:51;4.68;;;2.08;;
14268;SDS011;7218;51.480;7.006;2023-08-07T14:44:21;4.57;;;1.80;;
14268;SDS011;7218;51.480;7.006;2023-08-07T14:46:48;6.45;;;2.00;;
14268;SDS011;7218;51.480;7.006;2023-08-07T14:49:14;4.68;;;2.05;;
14268;SDS011;7218;51.480;7.006;2023-08-07T14:51:40;4.32;;;1.80;;
14268;SDS011;7218;51.480;7.006;2023-08-07T14:54:07;4.93;;;1.83;;
14268;SDS011;7218;51.480;7.006;2023-08-07T14:56:33;3.85;;;1.92;;
14268;SDS011;7218;51.480;7.006;2023-08-07T14:59:00;3.90;;;1.77;;